Time;durP1;ratioP1;P1;durP2;ratioP2;P2;SDS_P1;SDS_P2;PMS_P1;PMS_P2;Temp;Humidity;BMP_temperature;BMP_pressure;BME280_temperature;BME280_humidity;BME280_pressure;Samples;Min_cycle;Max_cycle;Signal;HPM_P1;HPM_P2
2021/06/22 14:52:04;;;;;;;37.97;33.63;;;14.90;99.90;;;;;;6044448;23;20781;-84
2021/06/22 15:08:35;;;;;;;27.90;25.30;;;15.50;99.90;;;;;;6051634;23;20476;-86
2021/06/22 15:11:49;;;;;;;25.67;23.10;;;15.60;99.90;;;;;;6064306;23;20472;-86
2021/06/22 15:17:43;;;;;;;37.20;34.13;;;15.90;99.90;;;;;;6094186;23;20402;-78
2021/06/22 15:20:11;;;;;;;44.00;40.70;;;15.90;99.90;;;;;;6251432;23;20168;-79
2021/06/22 15:22:41;;;;;;;46.20;42.80;;;15.90;99.90;;;;;;6263899;22;20458;-82
2021/06/22 15:26:01;;;;;;;48.58;45.08;;;15.70;99.90;;;;;;6252610;23;20450;-83
2021/06/22 15:34:47;;;;;;;43.50;40.10;;;14.90;99.90;;;;;;6189034;23;20416;-84
2021/06/22 15:37:14;;;;;;;51.88;48.08;;;14.90;99.90;;;;;;6256132;23;20420;-85
2021/06/22 15:40:01;;;;;;;52.57;48.87;;;14.80;99.90;;;;;;6246601;23;20157;-82
2021/06/22 15:42:35;;;;;;;43.50;40.20;;;14.70;99.90;;;;;;6247322;23;20776;-82
2021/06/22 15:48:15;;;;;;;41.97;30.27;;;14.50;99.90;;;;;;6157300;23;20414;-84
2021/06/22 15:50:45;;;;;;;30.73;28.13;;;14.50;99.90;;;;;;6246996;23;20522;-83
2021/06/22 15:53:13;;;;;;;35.40;32.50;;;14.40;99.90;;;;;;6247218;23;20404;-82
2021/06/22 15:55:43;;;;;;;32.10;29.40;;;14.30;99.90;;;;;;6246924;23;20399;-83
2021/06/22 15:58:10;;;;;;;33.27;30.57;;;14.30;99.90;;;;;;6247189;23;20403;-83
2021/06/22 16:00:45;;;;;;;35.57;32.83;;;14.30;99.90;;;;;;6246911;23;20438;-82
2021/06/22 16:03:12;;;;;;;33.53;30.83;;;14.30;99.90;;;;;;6255307;23;20417;-82
2021/06/22 16:05:41;;;;;;;41.53;38.53;;;14.30;99.90;;;;;;6246950;23;20406;-82
2021/06/22 16:08:10;;;;;;;39.70;36.90;;;14.30;99.90;;;;;;6257059;23;20403;-83
2021/06/22 16:10:38;;;;;;;40.00;37.20;;;14.30;99.90;;;;;;6246934;23;20514;-82
2021/06/22 16:13:07;;;;;;;41.83;39.00;;;14.40;99.90;;;;;;6256286;23;20414;-82
2021/06/22 16:15:34;;;;;;;42.63;39.73;;;14.30;99.90;;;;;;6256839;23;20399;-82
2021/06/22 16:18:08;;;;;;;44.40;41.40;;;14.30;99.90;;;;;;6255186;23;20411;-82
2021/06/22 16:20:39;;;;;;;43.13;40.23;;;14.20;99.90;;;;;;6256719;23;20490;-82
2021/06/22 16:23:31;;;;;;;48.40;45.30;;;14.40;99.90;;;;;;6256783;23;20437;-83
2021/06/22 16:26:08;;;;;;;45.60;42.60;;;14.30;99.90;;;;;;6256818;23;20399;-82
2021/06/22 16:28:35;;;;;;;45.40;42.37;;;14.20;99.90;;;;;;6246598;23;20530;-81
2021/06/22 16:31:02;;;;;;;54.20;50.80;;;14.20;99.90;;;;;;6246340;23;20431;-84
2021/06/22 16:33:29;;;;;;;51.93;48.67;;;14.20;99.90;;;;;;6254890;23;20414;-84
2021/06/22 16:35:56;;;;;;;54.03;50.70;;;14.20;99.90;;;;;;6246166;23;20441;-82
2021/06/22 16:38:23;;;;;;;56.73;53.30;;;14.30;99.90;;;;;;6256292;23;20409;-82
2021/06/22 16:40:51;;;;;;;57.70;54.20;;;14.40;99.90;;;;;;6245768;23;20399;-83
2021/06/22 16:43:21;;;;;;;62.50;58.80;;;14.40;99.90;;;;;;6256390;23;20438;-84
2021/06/22 16:45:58;;;;;;;55.27;51.87;;;14.40;99.90;;;;;;6255969;23;20732;-83
2021/06/22 16:48:36;;;;;;;69.23;64.60;;;14.40;99.90;;;;;;6244989;23;20427;-83
2021/06/22 16:51:13;;;;;;;63.97;60.17;;;14.40;99.90;;;;;;6256329;23;20438;-84
2021/06/22 16:53:49;;;;;;;64.50;60.70;;;14.50;99.90;;;;;;6246682;23;20423;-83
2021/06/22 16:56:22;;;;;;;62.73;59.00;;;14.40;99.90;;;;;;6256734;23;20395;-84
2021/06/22 16:58:56;;;;;;;65.10;61.30;;;14.60;99.90;;;;;;6256732;23;20434;-83
2021/06/22 17:01:36;;;;;;;65.23;61.37;;;14.50;99.90;;;;;;6246158;23;20940;-82
2021/06/22 17:04:08;;;;;;;71.03;67.03;;;14.50;99.90;;;;;;6255156;23;20411;-82
2021/06/22 17:06:37;;;;;;;67.30;63.37;;;14.50;99.90;;;;;;6246663;23;20482;-83
2021/06/22 17:09:04;;;;;;;72.17;68.07;;;14.40;99.90;;;;;;6246265;23;20612;-82
2021/06/22 17:11:48;;;;;;;74.27;70.07;;;14.40;99.90;;;;;;6246423;23;20431;-82
2021/06/22 17:14:15;;;;;;;66.87;62.97;;;14.40;99.90;;;;;;6246622;23;20399;-82
2021/06/22 17:16:45;;;;;;;63.13;59.23;;;14.30;99.90;;;;;;6246531;23;20399;-83
2021/06/22 17:19:12;;;;;;;68.87;64.97;;;14.30;99.90;;;;;;6245004;23;20400;-83
2021/06/22 17:21:39;;;;;;;66.10;62.30;;;14.20;99.90;;;;;;6254750;23;20518;-81
2021/06/22 17:24:09;;;;;;;62.87;59.20;;;14.10;99.90;;;;;;6243412;23;20406;-83
2021/06/22 17:51:39;;;;;;;73.10;69.10;;;14.30;99.90;;;;;;6216402;22;21077;-82
